CFU weather

Fumigaciones Aereas Cervantes Airport
Bacum, Sonora, Mexico

Public forecast

Using degrees Celsius for public forecast. Weather courtesy of forecast.io.

METAR (pilot weather report)

Report is more than 6 hours old.

Closest report is Ciudad Obregón International Airport, 14.3 nm (26.5 km) E. Retrieved 2019/06/24 01:46 UTC (6 hours ago):

MMCN 240146Z 25005KT 10SM SKC 32/12 A2976

TAF (pilot weather forecast)

Closest forecast is Ciudad Obregón International Airport, 14.3 nm (26.5 km) E. Retrieved 2019/06/24 06:27 UTC (2 hours ago):

TAF MMCN 240504Z 2406/2506 26005KT P6SM SKC FM241900 22010KT P6SM SKC FM250300 24005KT P6SM SKC